sensor_id;sensor_type;location;lat;lon;timestamp;P1;durP1;ratioP1;P2;durP2;ratioP2
11699;SDS011;5906;51.660;6.674;2023-02-28T00:00:18;10.90;;;6.30;;
11699;SDS011;5906;51.660;6.674;2023-02-28T00:02:46;12.20;;;7.83;;
11699;SDS011;5906;51.660;6.674;2023-02-28T00:05:14;8.40;;;7.23;;
11699;SDS011;5906;51.660;6.674;2023-02-28T00:07:43;24.57;;;8.20;;
11699;SDS011;5906;51.660;6.674;2023-02-28T00:10:11;20.37;;;8.70;;
11699;SDS011;5906;51.660;6.674;2023-02-28T00:12:40;11.77;;;7.83;;
11699;SDS011;5906;51.660;6.674;2023-02-28T00:15:07;10.40;;;6.63;;
11699;SDS011;5906;51.660;6.674;2023-02-28T00:17:36;13.53;;;7.50;;
11699;SDS011;5906;51.660;6.674;2023-02-28T00:20:05;7.83;;;6.83;;
11699;SDS011;5906;51.660;6.674;2023-02-28T00:22:38;10.40;;;7.40;;
11699;SDS011;5906;51.660;6.674;2023-02-28T00:25:08;8.80;;;7.20;;
11699;SDS011;5906;51.660;6.674;2023-02-28T00:27:36;12.87;;;6.97;;
11699;SDS011;5906;51.660;6.674;2023-02-28T00:30:05;14.70;;;8.33;;
11699;SDS011;5906;51.660;6.674;2023-02-28T00:32:35;8.37;;;7.00;;
11699;SDS011;5906;51.660;6.674;2023-02-28T00:35:02;8.50;;;6.67;;
11699;SDS011;5906;51.660;6.674;2023-02-28T00:37:29;7.23;;;6.00;;
11699;SDS011;5906;51.660;6.674;2023-02-28T00:39:56;8.93;;;7.13;;
11699;SDS011;5906;51.660;6.674;2023-02-28T00:42:24;8.23;;;6.63;;
11699;SDS011;5906;51.660;6.674;2023-02-28T00:44:51;8.27;;;7.10;;
11699;SDS011;5906;51.660;6.674;2023-02-28T00:47:18;7.70;;;6.43;;
11699;SDS011;5906;51.660;6.674;2023-02-28T00:49:45;11.50;;;7.57;;
11699;SDS011;5906;51.660;6.674;2023-02-28T00:52:12;9.93;;;7.80;;
11699;SDS011;5906;51.660;6.674;2023-02-28T00:54:39;11.07;;;7.00;;
11699;SDS011;5906;51.660;6.674;2023-02-28T00:57:06;14.93;;;6.63;;
11699;SDS011;5906;51.660;6.674;2023-02-28T00:59:33;9.97;;;8.20;;
11699;SDS011;5906;51.660;6.674;2023-02-28T01:02:00;12.03;;;7.77;;
11699;SDS011;5906;51.660;6.674;2023-02-28T01:04:27;10.00;;;8.00;;
11699;SDS011;5906;51.660;6.674;2023-02-28T01:06:55;8.57;;;7.30;;
11699;SDS011;5906;51.660;6.674;2023-02-28T01:09:22;7.77;;;6.83;;
11699;SDS011;5906;51.660;6.674;2023-02-28T01:11:48;8.57;;;7.03;;
11699;SDS011;5906;51.660;6.674;2023-02-28T01:14:16;14.13;;;7.57;;
11699;SDS011;5906;51.660;6.674;2023-02-28T01:16:44;8.60;;;7.30;;
11699;SDS011;5906;51.660;6.674;2023-02-28T01:19:11;9.10;;;6.50;;
11699;SDS011;5906;51.660;6.674;2023-02-28T01:21:38;10.97;;;7.20;;
11699;SDS011;5906;51.660;6.674;2023-02-28T01:24:05;21.23;;;8.00;;
11699;SDS011;5906;51.660;6.674;2023-02-28T01:26:33;9.00;;;6.73;;
11699;SDS011;5906;51.660;6.674;2023-02-28T01:29:00;11.50;;;6.37;;
11699;SDS011;5906;51.660;6.674;2023-02-28T01:31:27;11.67;;;7.50;;
11699;SDS011;5906;51.660;6.674;2023-02-28T01:33:54;11.33;;;6.60;;
11699;SDS011;5906;51.660;6.674;2023-02-28T01:36:22;9.23;;;7.90;;
11699;SDS011;5906;51.660;6.674;2023-02-28T01:38:50;10.60;;;7.53;;
11699;SDS011;5906;51.660;6.674;2023-02-28T01:46:14;9.03;;;7.30;;
11699;SDS011;5906;51.660;6.674;2023-02-28T01:48:49;7.90;;;6.17;;
11699;SDS011;5906;51.660;6.674;2023-02-28T01:52:03;11.90;;;7.37;;
11699;SDS011;5906;51.660;6.674;2023-02-28T01:54:18;8.13;;;6.73;;
11699;SDS011;5906;51.660;6.674;2023-02-28T01:56:54;9.43;;;6.23;;
11699;SDS011;5906;51.660;6.674;2023-02-28T01:59:39;6.50;;;5.87;;
11699;SDS011;5906;51.660;6.674;2023-02-28T02:02:13;9.03;;;7.07;;
11699;SDS011;5906;51.660;6.674;2023-02-28T02:04:46;15.23;;;8.50;;
11699;SDS011;5906;51.660;6.674;2023-02-28T02:07:45;6.97;;;6.17;;
11699;SDS011;5906;51.660;6.674;2023-02-28T02:10:19;8.17;;;5.93;;
11699;SDS011;5906;51.660;6.674;2023-02-28T02:15:39;10.27;;;6.00;;
11699;SDS011;5906;51.660;6.674;2023-02-28T02:29:17;8.57;;;6.07;;
11699;SDS011;5906;51.660;6.674;2023-02-28T02:35:14;7.23;;;6.50;;
11699;SDS011;5906;51.660;6.674;2023-02-28T02:37:55;11.10;;;7.47;;
11699;SDS011;5906;51.660;6.674;2023-02-28T02:40:47;7.40;;;6.00;;
11699;SDS011;5906;51.660;6.674;2023-02-28T02:43:34;10.30;;;5.87;;
11699;SDS011;5906;51.660;6.674;2023-02-28T02:46:35;7.13;;;6.43;;
11699;SDS011;5906;51.660;6.674;2023-02-28T02:49:08;8.73;;;7.10;;
11699;SDS011;5906;51.660;6.674;2023-02-28T02:51:42;12.93;;;7.10;;
11699;SDS011;5906;51.660;6.674;2023-02-28T02:54:24;7.20;;;5.90;;
11699;SDS011;5906;51.660;6.674;2023-02-28T02:56:59;8.30;;;6.07;;
11699;SDS011;5906;51.660;6.674;2023-02-28T02:59:31;8.13;;;6.20;;
11699;SDS011;5906;51.660;6.674;2023-02-28T03:02:01;8.60;;;6.53;;
11699;SDS011;5906;51.660;6.674;2023-02-28T03:04:32;9.60;;;6.40;;
11699;SDS011;5906;51.660;6.674;2023-02-28T03:07:04;9.40;;;6.57;;
11699;SDS011;5906;51.660;6.674;2023-02-28T03:09:32;6.80;;;6.10;;
11699;SDS011;5906;51.660;6.674;2023-02-28T03:12:00;6.97;;;5.90;;
11699;SDS011;5906;51.660;6.674;2023-02-28T03:26:04;7.13;;;6.50;;
11699;SDS011;5906;51.660;6.674;2023-02-28T03:33:55;7.90;;;6.23;;
11699;SDS011;5906;51.660;6.674;2023-02-28T03:36:49;8.60;;;7.60;;
11699;SDS011;5906;51.660;6.674;2023-02-28T03:39:21;6.43;;;5.83;;
11699;SDS011;5906;51.660;6.674;2023-02-28T03:41:56;7.17;;;6.47;;
11699;SDS011;5906;51.660;6.674;2023-02-28T03:44:49;12.67;;;6.60;;
11699;SDS011;5906;51.660;6.674;2023-02-28T03:47:22;10.27;;;6.67;;
11699;SDS011;5906;51.660;6.674;2023-02-28T03:52:35;10.87;;;7.70;;
11699;SDS011;5906;51.660;6.674;2023-02-28T03:55:11;6.70;;;6.10;;
11699;SDS011;5906;51.660;6.674;2023-02-28T03:57:47;8.83;;;7.03;;
11699;SDS011;5906;51.660;6.674;2023-02-28T04:00:18;15.13;;;6.80;;
11699;SDS011;5906;51.660;6.674;2023-02-28T04:02:52;7.10;;;5.13;;
11699;SDS011;5906;51.660;6.674;2023-02-28T04:05:23;8.83;;;7.47;;
11699;SDS011;5906;51.660;6.674;2023-02-28T04:07:51;9.37;;;6.77;;
11699;SDS011;5906;51.660;6.674;2023-02-28T04:10:18;7.70;;;6.70;;
11699;SDS011;5906;51.660;6.674;2023-02-28T04:12:45;7.40;;;5.80;;
11699;SDS011;5906;51.660;6.674;2023-02-28T04:15:12;7.80;;;6.33;;
11699;SDS011;5906;51.660;6.674;2023-02-28T04:17:39;10.17;;;6.97;;
11699;SDS011;5906;51.660;6.674;2023-02-28T04:20:06;9.80;;;6.93;;
11699;SDS011;5906;51.660;6.674;2023-02-28T04:22:36;6.90;;;6.20;;
11699;SDS011;5906;51.660;6.674;2023-02-28T04:25:03;10.13;;;6.87;;
11699;SDS011;5906;51.660;6.674;2023-02-28T04:27:32;13.03;;;6.70;;
11699;SDS011;5906;51.660;6.674;2023-02-28T04:29:59;10.23;;;5.83;;
11699;SDS011;5906;51.660;6.674;2023-02-28T04:32:26;7.00;;;6.40;;
11699;SDS011;5906;51.660;6.674;2023-02-28T04:34:53;6.60;;;6.00;;
11699;SDS011;5906;51.660;6.674;2023-02-28T04:37:20;10.53;;;6.83;;
11699;SDS011;5906;51.660;6.674;2023-02-28T04:39:47;17.43;;;7.00;;
11699;SDS011;5906;51.660;6.674;2023-02-28T04:42:14;9.90;;;6.70;;
11699;SDS011;5906;51.660;6.674;2023-02-28T04:44:41;9.40;;;6.70;;
11699;SDS011;5906;51.660;6.674;2023-02-28T04:47:08;10.67;;;6.73;;
11699;SDS011;5906;51.660;6.674;2023-02-28T04:49:36;10.00;;;6.53;;
11699;SDS011;5906;51.660;6.674;2023-02-28T04:52:03;9.40;;;6.40;;
11699;SDS011;5906;51.660;6.674;2023-02-28T04:54:30;9.70;;;6.90;;
11699;SDS011;5906;51.660;6.674;2023-02-28T04:56:56;7.87;;;6.93;;
11699;SDS011;5906;51.660;6.674;2023-02-28T04:59:23;7.70;;;6.50;;
11699;SDS011;5906;51.660;6.674;2023-02-28T05:01:50;7.40;;;6.57;;
11699;SDS011;5906;51.660;6.674;2023-02-28T05:04:17;8.37;;;6.10;;
11699;SDS011;5906;51.660;6.674;2023-02-28T05:06:44;9.80;;;7.20;;
11699;SDS011;5906;51.660;6.674;2023-02-28T05:09:11;10.27;;;7.97;;
11699;SDS011;5906;51.660;6.674;2023-02-28T05:11:38;8.97;;;7.33;;
11699;SDS011;5906;51.660;6.674;2023-02-28T05:14:11;6.17;;;5.63;;
11699;SDS011;5906;51.660;6.674;2023-02-28T05:16:39;9.63;;;7.30;;
11699;SDS011;5906;51.660;6.674;2023-02-28T05:19:06;8.73;;;7.27;;
11699;SDS011;5906;51.660;6.674;2023-02-28T05:21:35;8.07;;;6.37;;
11699;SDS011;5906;51.660;6.674;2023-02-28T05:24:05;6.97;;;6.03;;
11699;SDS011;5906;51.660;6.674;2023-02-28T05:26:37;12.70;;;7.10;;
11699;SDS011;5906;51.660;6.674;2023-02-28T05:29:06;7.30;;;6.63;;
11699;SDS011;5906;51.660;6.674;2023-02-28T05:31:34;7.77;;;6.10;;
11699;SDS011;5906;51.660;6.674;2023-02-28T05:34:01;8.20;;;6.10;;
11699;SDS011;5906;51.660;6.674;2023-02-28T05:36:30;6.53;;;5.93;;
11699;SDS011;5906;51.660;6.674;2023-02-28T05:38:57;7.67;;;6.90;;
11699;SDS011;5906;51.660;6.674;2023-02-28T05:41:24;7.13;;;6.40;;
11699;SDS011;5906;51.660;6.674;2023-02-28T05:43:52;12.10;;;6.30;;
11699;SDS011;5906;51.660;6.674;2023-02-28T05:46:19;7.93;;;7.03;;
11699;SDS011;5906;51.660;6.674;2023-02-28T05:48:46;10.10;;;7.20;;
11699;SDS011;5906;51.660;6.674;2023-02-28T05:51:14;8.20;;;6.47;;
11699;SDS011;5906;51.660;6.674;2023-02-28T05:53:42;9.87;;;6.50;;
11699;SDS011;5906;51.660;6.674;2023-02-28T05:56:09;7.17;;;6.47;;
11699;SDS011;5906;51.660;6.674;2023-02-28T05:58:35;12.57;;;6.13;;
11699;SDS011;5906;51.660;6.674;2023-02-28T06:03:49;7.77;;;6.77;;
11699;SDS011;5906;51.660;6.674;2023-02-28T06:06:16;8.10;;;6.53;;
11699;SDS011;5906;51.660;6.674;2023-02-28T06:08:42;8.97;;;6.93;;
11699;SDS011;5906;51.660;6.674;2023-02-28T06:11:10;7.93;;;6.23;;
11699;SDS011;5906;51.660;6.674;2023-02-28T06:13:38;11.00;;;6.80;;
11699;SDS011;5906;51.660;6.674;2023-02-28T06:16:05;10.77;;;6.30;;
11699;SDS011;5906;51.660;6.674;2023-02-28T06:18:31;7.20;;;6.00;;
11699;SDS011;5906;51.660;6.674;2023-02-28T06:20:58;11.07;;;6.70;;
11699;SDS011;5906;51.660;6.674;2023-02-28T06:23:25;8.97;;;6.87;;
11699;SDS011;5906;51.660;6.674;2023-02-28T06:25:54;7.90;;;7.20;;
11699;SDS011;5906;51.660;6.674;2023-02-28T06:28:25;8.03;;;6.73;;
11699;SDS011;5906;51.660;6.674;2023-02-28T06:30:52;7.77;;;6.23;;
11699;SDS011;5906;51.660;6.674;2023-02-28T06:33:19;6.80;;;6.10;;
11699;SDS011;5906;51.660;6.674;2023-02-28T06:35:46;7.37;;;6.03;;
11699;SDS011;5906;51.660;6.674;2023-02-28T06:38:16;8.87;;;6.50;;
11699;SDS011;5906;51.660;6.674;2023-02-28T06:40:44;9.23;;;6.17;;
11699;SDS011;5906;51.660;6.674;2023-02-28T06:43:11;7.50;;;6.07;;
11699;SDS011;5906;51.660;6.674;2023-02-28T06:45:41;7.60;;;6.80;;
11699;SDS011;5906;51.660;6.674;2023-02-28T06:48:09;9.13;;;7.43;;
11699;SDS011;5906;51.660;6.674;2023-02-28T06:50:36;10.63;;;5.97;;
11699;SDS011;5906;51.660;6.674;2023-02-28T06:53:03;10.37;;;5.87;;
11699;SDS011;5906;51.660;6.674;2023-02-28T06:55:30;13.70;;;8.03;;
11699;SDS011;5906;51.660;6.674;2023-02-28T06:57:58;8.00;;;7.20;;
11699;SDS011;5906;51.660;6.674;2023-02-28T07:00:25;12.93;;;7.10;;
11699;SDS011;5906;51.660;6.674;2023-02-28T07:02:51;7.03;;;6.27;;
11699;SDS011;5906;51.660;6.674;2023-02-28T07:05:20;6.97;;;6.07;;
11699;SDS011;5906;51.660;6.674;2023-02-28T07:07:47;7.60;;;5.60;;
11699;SDS011;5906;51.660;6.674;2023-02-28T07:10:14;10.27;;;6.03;;
11699;SDS011;5906;51.660;6.674;2023-02-28T07:12:45;8.27;;;7.10;;
11699;SDS011;5906;51.660;6.674;2023-02-28T07:15:12;8.10;;;6.60;;
11699;SDS011;5906;51.660;6.674;2023-02-28T07:17:39;18.43;;;7.37;;
11699;SDS011;5906;51.660;6.674;2023-02-28T07:20:06;8.90;;;7.07;;
11699;SDS011;5906;51.660;6.674;2023-02-28T07:22:33;6.07;;;5.47;;
11699;SDS011;5906;51.660;6.674;2023-02-28T07:25:00;7.70;;;6.73;;
11699;SDS011;5906;51.660;6.674;2023-02-28T07:27:27;7.67;;;6.73;;
11699;SDS011;5906;51.660;6.674;2023-02-28T07:29:53;9.20;;;6.83;;
11699;SDS011;5906;51.660;6.674;2023-02-28T07:32:21;9.03;;;7.27;;
11699;SDS011;5906;51.660;6.674;2023-02-28T07:34:48;8.20;;;6.60;;
11699;SDS011;5906;51.660;6.674;2023-02-28T07:37:15;8.43;;;6.13;;
11699;SDS011;5906;51.660;6.674;2023-02-28T07:39:42;10.40;;;7.17;;
11699;SDS011;5906;51.660;6.674;2023-02-28T07:42:09;10.20;;;6.80;;
11699;SDS011;5906;51.660;6.674;2023-02-28T07:44:41;10.90;;;7.27;;
11699;SDS011;5906;51.660;6.674;2023-02-28T07:47:11;12.50;;;8.07;;
11699;SDS011;5906;51.660;6.674;2023-02-28T07:49:38;10.90;;;7.83;;
11699;SDS011;5906;51.660;6.674;2023-02-28T07:52:05;8.87;;;7.27;;
11699;SDS011;5906;51.660;6.674;2023-02-28T07:54:33;11.37;;;7.30;;
11699;SDS011;5906;51.660;6.674;2023-02-28T07:57:00;10.63;;;7.00;;
11699;SDS011;5906;51.660;6.674;2023-02-28T07:59:27;13.50;;;7.70;;
11699;SDS011;5906;51.660;6.674;2023-02-28T08:01:57;8.33;;;7.30;;
11699;SDS011;5906;51.660;6.674;2023-02-28T08:04:25;12.93;;;9.40;;
11699;SDS011;5906;51.660;6.674;2023-02-28T08:06:52;12.03;;;8.40;;
11699;SDS011;5906;51.660;6.674;2023-02-28T08:09:19;8.90;;;8.00;;
11699;SDS011;5906;51.660;6.674;2023-02-28T08:11:46;11.20;;;6.97;;
11699;SDS011;5906;51.660;6.674;2023-02-28T08:14:13;8.03;;;6.70;;
11699;SDS011;5906;51.660;6.674;2023-02-28T08:16:40;8.50;;;7.20;;
11699;SDS011;5906;51.660;6.674;2023-02-28T08:19:08;9.00;;;7.47;;
11699;SDS011;5906;51.660;6.674;2023-02-28T08:21:35;11.13;;;6.60;;
11699;SDS011;5906;51.660;6.674;2023-02-28T08:24:02;12.90;;;8.13;;
11699;SDS011;5906;51.660;6.674;2023-02-28T08:26:29;8.50;;;7.40;;
11699;SDS011;5906;51.660;6.674;2023-02-28T08:28:55;9.93;;;8.03;;
11699;SDS011;5906;51.660;6.674;2023-02-28T08:31:25;8.33;;;6.90;;
11699;SDS011;5906;51.660;6.674;2023-02-28T08:33:52;9.47;;;7.70;;
11699;SDS011;5906;51.660;6.674;2023-02-28T08:36:23;10.80;;;8.03;;
11699;SDS011;5906;51.660;6.674;2023-02-28T08:38:50;9.50;;;7.40;;
11699;SDS011;5906;51.660;6.674;2023-02-28T08:41:16;8.07;;;7.27;;
11699;SDS011;5906;51.660;6.674;2023-02-28T08:43:43;11.40;;;7.90;;
11699;SDS011;5906;51.660;6.674;2023-02-28T08:46:11;11.77;;;7.10;;
11699;SDS011;5906;51.660;6.674;2023-02-28T08:48:40;8.57;;;7.30;;
11699;SDS011;5906;51.660;6.674;2023-02-28T08:51:12;10.93;;;6.07;;
11699;SDS011;5906;51.660;6.674;2023-02-28T08:53:40;9.30;;;5.40;;
11699;SDS011;5906;51.660;6.674;2023-02-28T08:56:11;5.93;;;4.80;;
11699;SDS011;5906;51.660;6.674;2023-02-28T08:58:39;6.73;;;6.13;;
11699;SDS011;5906;51.660;6.674;2023-02-28T09:01:08;6.90;;;6.30;;
11699;SDS011;5906;51.660;6.674;2023-02-28T09:03:40;6.63;;;5.20;;
11699;SDS011;5906;51.660;6.674;2023-02-28T09:06:08;5.03;;;4.60;;
11699;SDS011;5906;51.660;6.674;2023-02-28T09:08:36;5.13;;;4.60;;
11699;SDS011;5906;51.660;6.674;2023-02-28T09:11:03;6.27;;;5.77;;
11699;SDS011;5906;51.660;6.674;2023-02-28T09:13:31;6.70;;;5.57;;
11699;SDS011;5906;51.660;6.674;2023-02-28T09:15:59;6.87;;;5.30;;
11699;SDS011;5906;51.660;6.674;2023-02-28T09:18:28;5.40;;;4.90;;
11699;SDS011;5906;51.660;6.674;2023-02-28T09:20:55;4.33;;;4.03;;
11699;SDS011;5906;51.660;6.674;2023-02-28T09:23:24;4.63;;;4.23;;
11699;SDS011;5906;51.660;6.674;2023-02-28T09:25:52;5.27;;;4.80;;
11699;SDS011;5906;51.660;6.674;2023-02-28T09:28:20;5.03;;;4.70;;
11699;SDS011;5906;51.660;6.674;2023-02-28T09:30:48;6.27;;;5.67;;
11699;SDS011;5906;51.660;6.674;2023-02-28T09:33:17;5.47;;;4.20;;
11699;SDS011;5906;51.660;6.674;2023-02-28T09:35:50;6.53;;;5.27;;
11699;SDS011;5906;51.660;6.674;2023-02-28T09:38:23;4.27;;;3.87;;
11699;SDS011;5906;51.660;6.674;2023-02-28T09:40:51;4.70;;;4.40;;
11699;SDS011;5906;51.660;6.674;2023-02-28T09:43:22;5.63;;;4.50;;
11699;SDS011;5906;51.660;6.674;2023-02-28T09:45:55;4.30;;;4.00;;
11699;SDS011;5906;51.660;6.674;2023-02-28T09:48:37;4.43;;;4.13;;
11699;SDS011;5906;51.660;6.674;2023-02-28T09:53:56;5.60;;;5.10;;
11699;SDS011;5906;51.660;6.674;2023-02-28T09:56:32;5.93;;;5.37;;
11699;SDS011;5906;51.660;6.674;2023-02-28T10:01:57;7.30;;;5.67;;
11699;SDS011;5906;51.660;6.674;2023-02-28T10:04:34;5.93;;;5.33;;
11699;SDS011;5906;51.660;6.674;2023-02-28T10:07:11;4.07;;;3.77;;
11699;SDS011;5906;51.660;6.674;2023-02-28T10:09:51;4.40;;;4.10;;
11699;SDS011;5906;51.660;6.674;2023-02-28T10:12:21;6.10;;;5.50;;
11699;SDS011;5906;51.660;6.674;2023-02-28T10:14:49;9.37;;;6.00;;
11699;SDS011;5906;51.660;6.674;2023-02-28T10:17:23;6.07;;;3.50;;
11699;SDS011;5906;51.660;6.674;2023-02-28T10:20:00;5.17;;;4.77;;
11699;SDS011;5906;51.660;6.674;2023-02-28T10:22:36;4.93;;;4.30;;
11699;SDS011;5906;51.660;6.674;2023-02-28T10:25:11;4.67;;;4.27;;
11699;SDS011;5906;51.660;6.674;2023-02-28T10:27:48;11.30;;;5.83;;
11699;SDS011;5906;51.660;6.674;2023-02-28T10:30:20;8.93;;;6.07;;
11699;SDS011;5906;51.660;6.674;2023-02-28T10:32:49;7.27;;;5.03;;
11699;SDS011;5906;51.660;6.674;2023-02-28T10:35:23;5.83;;;4.43;;
11699;SDS011;5906;51.660;6.674;2023-02-28T10:37:56;8.10;;;5.37;;
11699;SDS011;5906;51.660;6.674;2023-02-28T10:43:03;4.63;;;4.20;;
11699;SDS011;5906;51.660;6.674;2023-02-28T10:45:33;5.07;;;4.50;;
11699;SDS011;5906;51.660;6.674;2023-02-28T10:48:03;5.43;;;3.77;;
11699;SDS011;5906;51.660;6.674;2023-02-28T10:53:23;5.80;;;4.43;;
11699;SDS011;5906;51.660;6.674;2023-02-28T11:01:40;4.23;;;3.83;;
11699;SDS011;5906;51.660;6.674;2023-02-28T11:06:59;9.17;;;5.20;;
11699;SDS011;5906;51.660;6.674;2023-02-28T11:09:29;6.63;;;4.57;;
11699;SDS011;5906;51.660;6.674;2023-02-28T11:11:57;4.90;;;4.47;;
11699;SDS011;5906;51.660;6.674;2023-02-28T11:14:25;9.50;;;6.03;;
11699;SDS011;5906;51.660;6.674;2023-02-28T11:16:58;4.60;;;4.20;;
11699;SDS011;5906;51.660;6.674;2023-02-28T11:19:32;6.70;;;5.60;;
11699;SDS011;5906;51.660;6.674;2023-02-28T11:22:06;19.57;;;9.47;;
11699;SDS011;5906;51.660;6.674;2023-02-28T11:24:35;5.33;;;4.60;;
11699;SDS011;5906;51.660;6.674;2023-02-28T11:27:24;7.70;;;5.47;;
11699;SDS011;5906;51.660;6.674;2023-02-28T11:29:58;6.37;;;4.87;;
11699;SDS011;5906;51.660;6.674;2023-02-28T11:32:29;3.80;;;3.50;;
11699;SDS011;5906;51.660;6.674;2023-02-28T11:37:37;4.23;;;4.00;;
11699;SDS011;5906;51.660;6.674;2023-02-28T11:40:05;4.10;;;3.33;;
11699;SDS011;5906;51.660;6.674;2023-02-28T11:45:39;6.10;;;5.10;;
11699;SDS011;5906;51.660;6.674;2023-02-28T11:48:32;4.73;;;4.33;;
11699;SDS011;5906;51.660;6.674;2023-02-28T11:51:24;4.80;;;4.40;;
11699;SDS011;5906;51.660;6.674;2023-02-28T11:54:08;4.80;;;4.40;;
11699;SDS011;5906;51.660;6.674;2023-02-28T11:56:41;5.20;;;4.80;;
11699;SDS011;5906;51.660;6.674;2023-02-28T12:12:54;5.33;;;3.70;;
11699;SDS011;5906;51.660;6.674;2023-02-28T12:15:40;4.63;;;4.20;;
11699;SDS011;5906;51.660;6.674;2023-02-28T12:18:19;4.87;;;4.40;;
11699;SDS011;5906;51.660;6.674;2023-02-28T12:24:39;4.83;;;4.33;;
11699;SDS011;5906;51.660;6.674;2023-02-28T12:27:21;5.90;;;4.60;;
11699;SDS011;5906;51.660;6.674;2023-02-28T12:35:43;4.67;;;4.30;;
11699;SDS011;5906;51.660;6.674;2023-02-28T12:38:34;4.50;;;4.10;;
11699;SDS011;5906;51.660;6.674;2023-02-28T12:41:15;4.47;;;4.17;;
11699;SDS011;5906;51.660;6.674;2023-02-28T12:43:50;5.33;;;4.80;;
11699;SDS011;5906;51.660;6.674;2023-02-28T12:46:30;5.03;;;4.60;;
11699;SDS011;5906;51.660;6.674;2023-02-28T12:49:08;4.57;;;4.17;;
11699;SDS011;5906;51.660;6.674;2023-02-28T12:51:59;4.33;;;4.03;;
11699;SDS011;5906;51.660;6.674;2023-02-28T12:54:29;5.20;;;4.80;;
11699;SDS011;5906;51.660;6.674;2023-02-28T12:57:25;4.50;;;4.20;;
11699;SDS011;5906;51.660;6.674;2023-02-28T13:00:02;4.50;;;4.20;;
11699;SDS011;5906;51.660;6.674;2023-02-28T13:06:03;5.00;;;4.60;;
11699;SDS011;5906;51.660;6.674;2023-02-28T13:11:32;4.37;;;3.97;;
11699;SDS011;5906;51.660;6.674;2023-02-28T13:13:58;8.10;;;4.63;;
11699;SDS011;5906;51.660;6.674;2023-02-28T13:16:27;4.67;;;4.27;;
11699;SDS011;5906;51.660;6.674;2023-02-28T13:19:16;4.90;;;4.40;;
11699;SDS011;5906;51.660;6.674;2023-02-28T13:21:48;5.30;;;4.83;;
11699;SDS011;5906;51.660;6.674;2023-02-28T13:29:39;6.03;;;4.00;;
11699;SDS011;5906;51.660;6.674;2023-02-28T13:34:37;4.73;;;4.27;;
11699;SDS011;5906;51.660;6.674;2023-02-28T13:39:45;5.07;;;4.67;;
11699;SDS011;5906;51.660;6.674;2023-02-28T13:45:21;5.83;;;4.67;;
11699;SDS011;5906;51.660;6.674;2023-02-28T13:47:53;5.20;;;4.40;;
11699;SDS011;5906;51.660;6.674;2023-02-28T13:50:47;4.80;;;4.40;;
11699;SDS011;5906;51.660;6.674;2023-02-28T13:55:45;4.60;;;4.20;;
11699;SDS011;5906;51.660;6.674;2023-02-28T14:06:29;4.23;;;3.93;;
11699;SDS011;5906;51.660;6.674;2023-02-28T14:09:00;4.43;;;4.13;;
11699;SDS011;5906;51.660;6.674;2023-02-28T14:11:49;5.23;;;4.30;;
11699;SDS011;5906;51.660;6.674;2023-02-28T14:17:03;5.03;;;4.60;;
11699;SDS011;5906;51.660;6.674;2023-02-28T14:19:32;4.50;;;4.10;;
11699;SDS011;5906;51.660;6.674;2023-02-28T14:33:21;7.47;;;4.93;;
11699;SDS011;5906;51.660;6.674;2023-02-28T14:38:32;5.37;;;4.30;;
11699;SDS011;5906;51.660;6.674;2023-02-28T14:43:55;5.70;;;5.20;;
11699;SDS011;5906;51.660;6.674;2023-02-28T14:46:37;5.57;;;5.03;;
11699;SDS011;5906;51.660;6.674;2023-02-28T14:49:06;5.63;;;5.07;;
11699;SDS011;5906;51.660;6.674;2023-02-28T14:51:39;5.37;;;4.80;;
11699;SDS011;5906;51.660;6.674;2023-02-28T14:54:06;4.93;;;4.03;;
11699;SDS011;5906;51.660;6.674;2023-02-28T14:56:37;4.67;;;4.30;;
11699;SDS011;5906;51.660;6.674;2023-02-28T14:59:05;5.23;;;4.83;;
11699;SDS011;5906;51.660;6.674;2023-02-28T15:01:51;5.20;;;4.73;;
11699;SDS011;5906;51.660;6.674;2023-02-28T15:04:25;5.90;;;5.17;;
11699;SDS011;5906;51.660;6.674;2023-02-28T15:07:09;5.87;;;5.30;;
11699;SDS011;5906;51.660;6.674;2023-02-28T15:09:37;5.63;;;5.10;;
11699;SDS011;5906;51.660;6.674;2023-02-28T15:12:05;4.83;;;4.40;;
11699;SDS011;5906;51.660;6.674;2023-02-28T15:14:32;5.20;;;4.70;;
11699;SDS011;5906;51.660;6.674;2023-02-28T15:17:08;5.20;;;4.60;;
11699;SDS011;5906;51.660;6.674;2023-02-28T15:19:45;4.83;;;4.43;;
11699;SDS011;5906;51.660;6.674;2023-02-28T15:22:19;4.90;;;4.40;;
11699;SDS011;5906;51.660;6.674;2023-02-28T15:24:55;5.00;;;4.60;;
11699;SDS011;5906;51.660;6.674;2023-02-28T15:27:29;4.70;;;4.30;;
11699;SDS011;5906;51.660;6.674;2023-02-28T15:29:59;5.47;;;5.00;;
11699;SDS011;5906;51.660;6.674;2023-02-28T15:34:59;5.67;;;5.07;;
11699;SDS011;5906;51.660;6.674;2023-02-28T15:38:04;6.60;;;5.23;;
11699;SDS011;5906;51.660;6.674;2023-02-28T15:46:08;4.77;;;4.30;;
11699;SDS011;5906;51.660;6.674;2023-02-28T15:48:50;5.90;;;4.63;;
11699;SDS011;5906;51.660;6.674;2023-02-28T15:51:23;6.20;;;5.20;;
11699;SDS011;5906;51.660;6.674;2023-02-28T15:53:58;6.43;;;5.83;;
11699;SDS011;5906;51.660;6.674;2023-02-28T15:56:31;6.10;;;4.97;;
11699;SDS011;5906;51.660;6.674;2023-02-28T15:59:06;5.80;;;5.20;;
11699;SDS011;5906;51.660;6.674;2023-02-28T16:01:39;5.40;;;4.90;;
11699;SDS011;5906;51.660;6.674;2023-02-28T16:04:14;5.40;;;4.90;;
11699;SDS011;5906;51.660;6.674;2023-02-28T16:09:19;8.03;;;5.23;;
11699;SDS011;5906;51.660;6.674;2023-02-28T16:11:47;6.60;;;4.93;;
11699;SDS011;5906;51.660;6.674;2023-02-28T16:14:21;5.10;;;4.60;;
11699;SDS011;5906;51.660;6.674;2023-02-28T16:16:55;6.43;;;5.73;;
11699;SDS011;5906;51.660;6.674;2023-02-28T16:19:23;11.47;;;7.20;;
11699;SDS011;5906;51.660;6.674;2023-02-28T16:21:50;8.93;;;6.43;;
11699;SDS011;5906;51.660;6.674;2023-02-28T16:24:17;7.10;;;5.33;;
11699;SDS011;5906;51.660;6.674;2023-02-28T16:26:45;8.10;;;6.40;;
11699;SDS011;5906;51.660;6.674;2023-02-28T16:31:53;7.63;;;6.83;;
11699;SDS011;5906;51.660;6.674;2023-02-28T16:34:20;9.60;;;6.70;;
11699;SDS011;5906;51.660;6.674;2023-02-28T16:36:48;15.33;;;9.37;;
11699;SDS011;5906;51.660;6.674;2023-02-28T16:39:16;7.07;;;5.07;;
11699;SDS011;5906;51.660;6.674;2023-02-28T16:41:44;13.20;;;9.00;;
11699;SDS011;5906;51.660;6.674;2023-02-28T16:44:13;16.97;;;11.57;;
11699;SDS011;5906;51.660;6.674;2023-02-28T16:47:01;24.80;;;14.70;;
11699;SDS011;5906;51.660;6.674;2023-02-28T16:49:30;19.47;;;11.00;;
11699;SDS011;5906;51.660;6.674;2023-02-28T16:51:57;11.00;;;7.93;;
11699;SDS011;5906;51.660;6.674;2023-02-28T16:54:24;7.47;;;6.13;;
11699;SDS011;5906;51.660;6.674;2023-02-28T16:56:51;6.10;;;5.47;;
11699;SDS011;5906;51.660;6.674;2023-02-28T16:59:21;9.10;;;4.90;;
11699;SDS011;5906;51.660;6.674;2023-02-28T17:01:50;6.00;;;4.93;;
11699;SDS011;5906;51.660;6.674;2023-02-28T17:04:18;8.90;;;7.60;;
11699;SDS011;5906;51.660;6.674;2023-02-28T17:06:45;5.57;;;5.07;;
11699;SDS011;5906;51.660;6.674;2023-02-28T17:09:22;7.50;;;4.57;;
11699;SDS011;5906;51.660;6.674;2023-02-28T17:12:06;9.37;;;5.70;;
11699;SDS011;5906;51.660;6.674;2023-02-28T17:14:35;6.60;;;6.00;;
11699;SDS011;5906;51.660;6.674;2023-02-28T17:17:03;6.30;;;5.50;;
11699;SDS011;5906;51.660;6.674;2023-02-28T17:19:31;8.13;;;6.47;;
11699;SDS011;5906;51.660;6.674;2023-02-28T17:21:59;6.30;;;5.23;;
11699;SDS011;5906;51.660;6.674;2023-02-28T17:24:27;5.73;;;5.20;;
11699;SDS011;5906;51.660;6.674;2023-02-28T17:26:56;6.20;;;5.10;;
11699;SDS011;5906;51.660;6.674;2023-02-28T17:29:24;7.37;;;5.60;;
11699;SDS011;5906;51.660;6.674;2023-02-28T17:31:51;6.77;;;6.17;;
11699;SDS011;5906;51.660;6.674;2023-02-28T17:34:18;5.03;;;4.63;;
11699;SDS011;5906;51.660;6.674;2023-02-28T17:36:47;6.07;;;5.33;;
11699;SDS011;5906;51.660;6.674;2023-02-28T17:39:16;10.80;;;5.17;;
11699;SDS011;5906;51.660;6.674;2023-02-28T17:41:51;6.30;;;5.77;;
11699;SDS011;5906;51.660;6.674;2023-02-28T17:44:19;5.53;;;5.03;;
11699;SDS011;5906;51.660;6.674;2023-02-28T17:46:47;6.87;;;4.77;;
11699;SDS011;5906;51.660;6.674;2023-02-28T17:49:16;9.00;;;5.93;;
11699;SDS011;5906;51.660;6.674;2023-02-28T17:51:44;7.77;;;7.07;;
11699;SDS011;5906;51.660;6.674;2023-02-28T17:54:11;10.57;;;6.90;;
11699;SDS011;5906;51.660;6.674;2023-02-28T17:56:38;7.83;;;6.13;;